createdAt,value
2022-08-26T00:01:00.532Z,95324.2
2022-08-26T00:02:04.439Z,95321
2022-08-26T00:03:10.146Z,95320.5
2022-08-26T00:04:13.253Z,95318.5
2022-08-26T00:05:15.715Z,95320.3
2022-08-26T00:07:23.292Z,95315.9
2022-08-26T00:08:26.419Z,95316
2022-08-26T00:09:29.017Z,95314.9
2022-08-26T00:10:30.948Z,95315.9
2022-08-26T00:11:33.429Z,95316.8
2022-08-26T00:14:46.130Z,95317.1
2022-08-26T00:15:48.944Z,95311.3
2022-08-26T00:16:52.094Z,95316.9
2022-08-26T00:17:58.506Z,95314.2
2022-08-26T00:19:01.289Z,95316.3
2022-08-26T00:20:04.564Z,95311.3
2022-08-26T00:21:07.866Z,95312.9
2022-08-26T00:22:12.484Z,95313.7
2022-08-26T00:23:20.311Z,95311.7
2022-08-26T00:24:26.580Z,95311.6
2022-08-26T00:25:29.736Z,95313.8
2022-08-26T00:26:32.154Z,95314.4
2022-08-26T00:27:36.147Z,95316.4
2022-08-26T00:28:40.838Z,95313.4
2022-08-26T00:29:43.031Z,95315.1
2022-08-26T00:31:54.078Z,95316.7
2022-08-26T00:32:57.711Z,95310.6
2022-08-26T00:34:00.982Z,95315.5
2022-08-26T00:35:03.308Z,95312.8
2022-08-26T00:36:06.408Z,95311.9
2022-08-26T00:38:16.373Z,95313.1
2022-08-26T00:39:21.303Z,95314.3
2022-08-26T00:40:24.952Z,95314.3
2022-08-26T00:41:28.473Z,95311.6
2022-08-26T00:42:31.122Z,95314
2022-08-26T00:45:45.470Z,95313.4
2022-08-26T00:46:48.690Z,95307.4
2022-08-26T00:47:51.525Z,95309.3
2022-08-26T00:48:54.027Z,95308.5
2022-08-26T00:49:57.331Z,95308.8
2022-08-26T00:50:59.258Z,95311.8
2022-08-26T00:52:02.905Z,95310.3
2022-08-26T00:53:06.005Z,95309.8
2022-08-26T00:56:19.094Z,95310.3
2022-08-26T00:57:21.441Z,95314.4
2022-08-26T00:58:23.907Z,95309.1
2022-08-26T00:59:27.457Z,95310.5
2022-08-26T01:00:29.931Z,95314.3
2022-08-26T01:01:33.968Z,95311.1
2022-08-26T01:03:41.659Z,95312.6
2022-08-26T01:04:47.974Z,95313.7
2022-08-26T01:05:56.383Z,95310.1
2022-08-26T01:06:59.112Z,95317.3
2022-08-26T01:09:06.864Z,95315.3
2022-08-26T01:10:11.532Z,95319
2022-08-26T01:11:13.702Z,95315
2022-08-26T01:13:25.770Z,95316.6
2022-08-26T01:14:28.759Z,95315.1
2022-08-26T01:16:36.546Z,95310.3
2022-08-26T01:17:39.178Z,95314.4
2022-08-26T01:18:43.310Z,95313.3
2022-08-26T01:19:45.883Z,95315.5
2022-08-26T01:20:48.357Z,95315.4
2022-08-26T01:21:50.547Z,95313.3
2022-08-26T01:22:53.781Z,95313.9
2022-08-26T01:27:13.507Z,95311
2022-08-26T01:28:18.042Z,95311.2
2022-08-26T01:29:21.346Z,95311.8
2022-08-26T01:30:23.344Z,95310.6
2022-08-26T01:31:25.757Z,95308.6
2022-08-26T01:32:28.451Z,95310.2
2022-08-26T01:34:36.416Z,95310
2022-08-26T01:35:39.522Z,95312.4
2022-08-26T01:37:49.745Z,95307.3
2022-08-26T01:38:56.692Z,95309.6
2022-08-26T01:40:00.034Z,95309.9
2022-08-26T01:41:03.128Z,95309.3
2022-08-26T01:43:14.589Z,95314
2022-08-26T01:44:17.617Z,95311.6
2022-08-26T01:45:21.092Z,95317.8
2022-08-26T01:46:24.019Z,95311.6
2022-08-26T01:47:26.702Z,95315.4
2022-08-26T01:48:32.901Z,95312.9
2022-08-26T01:49:36.675Z,95311.9
2022-08-26T01:50:39.604Z,95310.6
2022-08-26T01:51:42.251Z,95313.5
2022-08-26T01:52:44.861Z,95309.7
2022-08-26T01:53:51.318Z,95308.3
2022-08-26T01:54:56.155Z,95314.2
2022-08-26T01:55:58.636Z,95313.2
2022-08-26T01:57:02.440Z,95312.8
2022-08-26T01:58:05.376Z,95313.6
2022-08-26T01:59:09.871Z,95309.3
2022-08-26T02:01:19.502Z,95312.2
2022-08-26T02:02:23.103Z,95311.8
2022-08-26T02:03:27.232Z,95315.1
2022-08-26T02:04:30.149Z,95309
2022-08-26T02:05:33.610Z,95313.2
2022-08-26T02:06:36.328Z,95310.3
2022-08-26T02:07:39.000Z,95313.3
2022-08-26T02:08:41.678Z,95312.8
2022-08-26T02:09:44.152Z,95310.5
2022-08-26T02:10:47.035Z,95315.6
2022-08-26T02:11:52.162Z,95313.7
2022-08-26T02:12:54.647Z,95312.5
2022-08-26T02:13:58.563Z,95312.6
2022-08-26T02:16:10.091Z,95311.2
2022-08-26T02:17:13.239Z,95309.3
2022-08-26T02:18:16.877Z,95304.7
2022-08-26T02:19:23.926Z,95304.7
2022-08-26T02:20:28.020Z,95311
2022-08-26T02:21:33.180Z,95310.9
2022-08-26T02:22:35.646Z,95307.2
2022-08-26T02:23:39.649Z,95308.8
2022-08-26T02:24:43.968Z,95309.8
2022-08-26T02:25:46.447Z,95308.1
2022-08-26T02:26:50.131Z,95312.6
2022-08-26T02:27:52.710Z,95307
2022-08-26T02:28:55.446Z,95306.7
2022-08-26T02:29:58.711Z,95307.7
2022-08-26T02:32:12.144Z,95304.8
2022-08-26T02:33:20.106Z,95308.7
2022-08-26T02:34:22.579Z,95305.2
2022-08-26T02:35:25.810Z,95305.5
2022-08-26T02:36:30.047Z,95304.1
2022-08-26T02:37:34.454Z,95305.3
2022-08-26T02:40:52.564Z,95306.6
2022-08-26T02:41:55.054Z,95302.6
2022-08-26T02:42:58.426Z,95305.7
2022-08-26T02:44:04.718Z,95306.6
2022-08-26T02:45:08.748Z,95302.2
2022-08-26T02:47:17.844Z,95301.8
2022-08-26T02:48:20.450Z,95305.4
2022-08-26T02:49:23.221Z,95303.5
2022-08-26T02:50:26.509Z,95306.2
2022-08-26T02:51:28.477Z,95306.5
2022-08-26T02:52:30.677Z,95303.7
2022-08-26T02:53:37.213Z,95305
2022-08-26T02:54:41.145Z,95305.7
2022-08-26T02:55:44.873Z,95301.3
2022-08-26T02:56:51.338Z,95299.3
2022-08-26T02:57:53.924Z,95303.9
2022-08-26T02:58:57.877Z,95303.6
2022-08-26T03:00:01.817Z,95302.1
2022-08-26T03:01:07.601Z,95305
2022-08-26T03:02:11.253Z,95301.2
2022-08-26T03:03:13.817Z,95304.2
2022-08-26T03:04:16.729Z,95304.2
2022-08-26T03:05:19.205Z,95306.4
2022-08-26T03:06:22.088Z,95303.9
2022-08-26T03:07:23.996Z,95304
2022-08-26T03:08:27.767Z,95304.9
2022-08-26T03:09:30.087Z,95305.4
2022-08-26T03:10:35.251Z,95302.3
2022-08-26T03:11:37.729Z,95300.7
2022-08-26T03:12:40.627Z,95297
2022-08-26T03:13:43.229Z,95297.3
2022-08-26T03:14:45.707Z,95297.8
2022-08-26T03:15:49.443Z,95295.5
2022-08-26T03:16:51.803Z,95300.1
2022-08-26T03:17:54.266Z,95297.8
2022-08-26T03:19:00.190Z,95299.6
2022-08-26T03:20:03.042Z,95296.3
2022-08-26T03:21:05.987Z,95293.8
2022-08-26T03:22:08.303Z,95296.6
2022-08-26T03:23:11.038Z,95296.7
2022-08-26T03:24:13.505Z,95297
2022-08-26T03:25:16.181Z,95296.9
2022-08-26T03:26:33.312Z,95295.4
2022-08-26T03:27:36.115Z,95297.8
2022-08-26T03:28:38.715Z,95297.4
2022-08-26T03:29:41.195Z,95293.9
2022-08-26T03:31:49.809Z,95302.1
2022-08-26T03:32:53.226Z,95297
2022-08-26T03:35:01.501Z,95297
2022-08-26T03:36:03.697Z,95300.6
2022-08-26T03:37:06.814Z,95296.3
2022-08-26T03:38:10.720Z,95296
2022-08-26T03:39:13.196Z,95297.8
2022-08-26T03:41:21.637Z,95297.7
2022-08-26T03:42:24.124Z,95298.1
2022-08-26T03:43:27.105Z,95297.8
2022-08-26T03:44:29.584Z,95297
2022-08-26T03:45:31.750Z,95300.1
2022-08-26T03:46:34.928Z,95301
2022-08-26T03:47:39.667Z,95299.9
2022-08-26T03:48:43.443Z,95299.7
2022-08-26T03:49:46.994Z,95301.7
2022-08-26T03:50:52.141Z,95300.1
2022-08-26T03:51:56.559Z,95299.3
2022-08-26T03:53:00.453Z,95301.2
2022-08-26T03:54:05.562Z,95296
2022-08-26T03:55:11.802Z,95295.3
2022-08-26T03:56:14.276Z,95295.5
2022-08-26T03:57:20.251Z,95291.3
2022-08-26T03:58:24.134Z,95291.6
2022-08-26T03:59:26.373Z,95292.9
2022-08-26T04:00:30.524Z,95286.9
2022-08-26T04:01:33.733Z,95290.2
2022-08-26T04:02:37.571Z,95289.3
2022-08-26T04:03:40.368Z,95288.2
2022-08-26T04:04:42.848Z,95286
2022-08-26T04:05:47.108Z,95285.9
2022-08-26T04:06:50.828Z,95286.8
2022-08-26T04:07:53.043Z,95289.9
2022-08-26T04:08:55.720Z,95287.2
2022-08-26T04:09:58.195Z,95288.2
2022-08-26T04:11:01.722Z,95284
2022-08-26T04:12:05.817Z,95281.6
2022-08-26T04:13:09.080Z,95286.5
2022-08-26T04:14:11.680Z,95287.5
2022-08-26T04:15:15.726Z,95282
2022-08-26T04:16:20.135Z,95285.2
2022-08-26T04:17:26.548Z,95285.4
2022-08-26T04:19:34.085Z,95286.6
2022-08-26T04:20:37.106Z,95287.1
2022-08-26T04:21:40.616Z,95284.8
2022-08-26T04:22:43.954Z,95290.2
2022-08-26T04:24:51.456Z,95287.1
2022-08-26T04:25:54.107Z,95286
2022-08-26T04:26:56.605Z,95282.9
2022-08-26T04:27:58.862Z,95282.6
2022-08-26T04:29:01.341Z,95285.6
2022-08-26T04:30:04.843Z,95286.3
2022-08-26T04:31:08.206Z,95287.1
2022-08-26T04:32:12.400Z,95285.3
2022-08-26T04:33:15.276Z,95283.2
2022-08-26T04:34:17.993Z,95281.3
2022-08-26T04:36:25.462Z,95290.3
2022-08-26T04:37:28.413Z,95291.1
2022-08-26T04:38:30.884Z,95287.5
2022-08-26T04:39:33.356Z,95289.7
2022-08-26T04:40:39.424Z,95286.7
2022-08-26T04:41:45.616Z,95288.9
2022-08-26T04:42:47.820Z,95291.4
2022-08-26T04:43:54.572Z,95293.5
2022-08-26T04:44:56.719Z,95289.9
2022-08-26T04:45:59.862Z,95291.6
2022-08-26T04:47:04.300Z,95290.5
2022-08-26T04:49:11.691Z,95287.5
2022-08-26T04:50:15.022Z,95289.3
2022-08-26T04:51:22.560Z,95288.1
2022-08-26T04:53:32.078Z,95289.5
2022-08-26T04:54:35.750Z,95287.5
2022-08-26T04:56:45.677Z,95287
2022-08-26T04:57:50.810Z,95289.5
2022-08-26T04:58:53.002Z,95290.5
2022-08-26T04:59:55.226Z,95292.4
2022-08-26T05:00:57.825Z,95290.6
2022-08-26T05:02:00.911Z,95289.3
2022-08-26T05:03:07.467Z,95288.3
2022-08-26T05:05:21.254Z,95290.3
2022-08-26T05:06:25.044Z,95286.6
2022-08-26T05:07:27.133Z,95289.5
2022-08-26T05:08:29.859Z,95292
2022-08-26T05:09:32.336Z,95291.7
2022-08-26T05:10:34.995Z,95293.9
2022-08-26T05:11:37.463Z,95292.7
2022-08-26T05:13:48.038Z,95297.5
2022-08-26T05:14:49.977Z,95299.4
2022-08-26T05:17:02.338Z,95299.1
2022-08-26T05:18:04.951Z,95299.5
2022-08-26T05:19:09.835Z,95302.7
2022-08-26T05:20:13.529Z,95299.5
2022-08-26T05:21:17.769Z,95304.3
2022-08-26T05:22:20.912Z,95307.1
2022-08-26T05:23:23.585Z,95303.2
2022-08-26T05:24:26.181Z,95304.8
2022-08-26T05:25:31.495Z,95302.6
2022-08-26T05:26:34.790Z,95307.5
2022-08-26T05:27:39.709Z,95305
2022-08-26T05:28:43.595Z,95305.5
2022-08-26T05:29:46.594Z,95305.1
2022-08-26T05:30:53.828Z,95310.6
2022-08-26T05:31:58.499Z,95306.5
2022-08-26T05:33:03.214Z,95310.3
2022-08-26T05:34:06.177Z,95310.3
2022-08-26T05:35:10.618Z,95311
2022-08-26T05:36:14.535Z,95313.3
2022-08-26T05:37:18.458Z,95317.8
2022-08-26T05:38:21.000Z,95315
2022-08-26T05:39:23.546Z,95319.7
2022-08-26T05:40:27.785Z,95317.9
2022-08-26T05:42:36.590Z,95316.7
2022-08-26T05:43:38.698Z,95320.4
2022-08-26T05:45:50.641Z,95320.2
2022-08-26T05:46:53.640Z,95324
2022-08-26T05:47:55.863Z,95320.6
2022-08-26T05:48:58.431Z,95324.2
2022-08-26T05:50:00.904Z,95321.6
2022-08-26T05:51:03.378Z,95319.3
2022-08-26T05:52:06.050Z,95321.4
2022-08-26T05:53:10.043Z,95323.3
2022-08-26T05:54:12.550Z,95321.1
2022-08-26T05:55:16.724Z,95324.7
2022-08-26T05:56:21.368Z,95321.4
2022-08-26T05:57:24.677Z,95321.4
2022-08-26T05:58:28.269Z,95322.3
2022-08-26T06:00:37.764Z,95326.9
2022-08-26T06:01:40.447Z,95325.8
2022-08-26T06:02:43.370Z,95326.8
2022-08-26T06:03:51.289Z,95326.4
2022-08-26T06:04:54.377Z,95327.5
2022-08-26T06:05:56.465Z,95320
2022-08-26T06:06:59.809Z,95324.9
2022-08-26T06:08:02.690Z,95323.3
2022-08-26T06:09:06.286Z,95323.6
2022-08-26T06:12:22.745Z,95326.1
2022-08-26T06:13:24.969Z,95325.4
2022-08-26T06:14:27.757Z,95325.2
2022-08-26T06:15:31.085Z,95326.2
2022-08-26T06:16:35.324Z,95327.5
2022-08-26T06:17:37.933Z,95328.2
2022-08-26T06:18:40.275Z,95326.7
2022-08-26T06:19:43.213Z,95324.8
2022-08-26T06:22:55.873Z,95323.9
2022-08-26T06:24:01.736Z,95329.1
2022-08-26T06:25:06.240Z,95328.2
2022-08-26T06:26:12.608Z,95332.9
2022-08-26T06:27:16.520Z,95333.9
2022-08-26T06:28:19.894Z,95330
2022-08-26T06:30:27.684Z,95333.7
2022-08-26T06:31:31.129Z,95328.7
2022-08-26T06:32:36.323Z,95326.3
2022-08-26T06:33:40.089Z,95328
2022-08-26T06:34:43.497Z,95327
2022-08-26T06:35:45.975Z,95324.6
2022-08-26T06:36:48.179Z,95325.6
2022-08-26T06:37:55.832Z,95323.4
2022-08-26T06:38:58.330Z,95323.1
2022-08-26T06:40:00.889Z,95324.6
2022-08-26T06:41:08.259Z,95321
2022-08-26T06:42:13.572Z,95324.7
2022-08-26T06:43:15.551Z,95327.7
2022-08-26T06:44:21.417Z,95328.2
2022-08-26T06:45:23.748Z,95326.8
2022-08-26T06:46:27.971Z,95332.3
2022-08-26T06:47:30.690Z,95329.8
2022-08-26T06:48:37.640Z,95328.4
2022-08-26T06:49:41.008Z,95332.9
2022-08-26T06:50:46.303Z,95332.6
2022-08-26T06:51:52.972Z,95335.9
2022-08-26T06:52:59.500Z,95334.8
2022-08-26T06:54:03.048Z,95335
2022-08-26T06:55:05.301Z,95332.4
2022-08-26T06:56:10.264Z,95338.3
2022-08-26T06:57:17.834Z,95336.7
2022-08-26T06:58:21.235Z,95336.2
2022-08-26T06:59:24.088Z,95335.6
2022-08-26T07:00:27.469Z,95334.9
2022-08-26T07:01:33.049Z,95333.8
2022-08-26T07:02:37.071Z,95331.7
2022-08-26T07:03:42.071Z,95333
2022-08-26T07:05:58.461Z,95334.3
2022-08-26T07:07:01.574Z,95332.8
2022-08-26T07:08:04.553Z,95331.6
2022-08-26T07:10:11.500Z,95336.3
2022-08-26T07:11:13.530Z,95336
2022-08-26T07:12:15.832Z,95331.9
2022-08-26T07:14:24.793Z,95335.9
2022-08-26T07:16:36.018Z,95341.8
2022-08-26T07:17:40.911Z,95338.6
2022-08-26T07:19:50.250Z,95338.9
2022-08-26T07:20:54.634Z,95338.9
2022-08-26T07:21:58.503Z,95344.2
2022-08-26T07:23:02.790Z,95339.1
2022-08-26T07:24:05.856Z,95347.5
2022-08-26T07:25:08.062Z,95341.9
2022-08-26T07:26:10.533Z,95344.7
2022-08-26T07:27:13.059Z,95346.3
2022-08-26T07:28:15.573Z,95347.8
2022-08-26T07:29:18.520Z,95346.8
2022-08-26T07:30:26.310Z,95348.8
2022-08-26T07:31:32.556Z,95348
2022-08-26T07:32:36.501Z,95347.9
2022-08-26T07:33:41.844Z,95348.8
2022-08-26T07:34:44.229Z,95350.6
2022-08-26T07:35:46.516Z,95347.5
2022-08-26T07:36:50.329Z,95349.3
2022-08-26T07:38:57.798Z,95354.3
2022-08-26T07:40:01.662Z,95355.4
2022-08-26T07:41:04.647Z,95351.8
2022-08-26T07:43:13.445Z,95352.6
2022-08-26T07:44:18.119Z,95356.8
2022-08-26T07:45:21.634Z,95357.1
2022-08-26T07:47:30.689Z,95354.4
2022-08-26T07:48:36.672Z,95354.8
2022-08-26T07:49:40.812Z,95354.6
2022-08-26T07:51:48.426Z,95355.5
2022-08-26T07:52:50.337Z,95355.3
2022-08-26T07:53:54.054Z,95353.2
2022-08-26T07:54:56.260Z,95355.1
2022-08-26T07:55:59.235Z,95351.8
2022-08-26T07:58:07.649Z,95353.6
2022-08-26T08:00:16.554Z,95352.5
2022-08-26T08:01:19.850Z,95351.1
2022-08-26T08:02:22.533Z,95348
2022-08-26T08:03:24.834Z,95354.6
2022-08-26T08:04:28.279Z,95351.3
2022-08-26T08:06:36.016Z,95349.9
2022-08-26T08:08:43.213Z,95349
2022-08-26T08:09:45.437Z,95353.4
2022-08-26T08:11:53.018Z,95347.3
2022-08-26T08:12:56.898Z,95352.6
2022-08-26T08:14:00.445Z,95352.2
2022-08-26T08:15:05.250Z,95352.1
2022-08-26T08:17:13.760Z,95354.4
2022-08-26T08:18:17.729Z,95349.1
2022-08-26T08:20:32.193Z,95352.4
2022-08-26T08:21:35.709Z,95347
2022-08-26T08:22:37.922Z,95347.6
2022-08-26T08:23:40.566Z,95343
2022-08-26T08:24:42.876Z,95342.3
2022-08-26T08:25:46.373Z,95343.2
2022-08-26T08:26:49.440Z,95345.2
2022-08-26T08:27:52.795Z,95342.8
2022-08-26T08:28:55.776Z,95348.5
2022-08-26T08:29:57.990Z,95346.3
2022-08-26T08:31:01.095Z,95347.7
2022-08-26T08:32:04.669Z,95342.6
2022-08-26T08:33:06.870Z,95345.3
2022-08-26T08:34:10.285Z,95347.8
2022-08-26T08:35:13.314Z,95350.5
2022-08-26T08:37:22.378Z,95352.4
2022-08-26T08:38:27.251Z,95352.6
2022-08-26T08:39:29.733Z,95351.8
2022-08-26T08:40:32.978Z,95351.4
2022-08-26T08:41:36.527Z,95349.5
2022-08-26T08:42:39.181Z,95349
2022-08-26T08:43:41.526Z,95345.3
2022-08-26T08:44:44.010Z,95344.5
2022-08-26T08:45:51.420Z,95347.5
2022-08-26T08:46:53.743Z,95348.3
2022-08-26T08:47:56.589Z,95343
2022-08-26T08:48:59.140Z,95347
2022-08-26T08:50:01.870Z,95342.2
2022-08-26T08:51:05.603Z,95340.8
2022-08-26T08:52:08.081Z,95342.7
2022-08-26T08:53:10.702Z,95339.8
2022-08-26T08:54:12.910Z,95341.7
2022-08-26T08:56:20.684Z,95346.4
2022-08-26T08:57:23.740Z,95347.2
2022-08-26T08:58:26.229Z,95344.4
2022-08-26T08:59:28.138Z,95343.5
2022-08-26T09:00:32.647Z,95347.3
2022-08-26T09:01:38.723Z,95346.2
2022-08-26T09:02:41.516Z,95345.4
2022-08-26T09:03:44.064Z,95344.3
2022-08-26T09:04:47.099Z,95342
2022-08-26T09:05:50.206Z,95343.8
2022-08-26T09:06:52.110Z,95343.4
2022-08-26T09:07:55.774Z,95338.3
2022-08-26T09:08:59.422Z,95339.6
2022-08-26T09:10:03.454Z,95337
2022-08-26T09:11:07.844Z,95340.3
2022-08-26T09:12:12.106Z,95338
2022-08-26T09:14:19.924Z,95339.5
2022-08-26T09:15:25.446Z,95338.5
2022-08-26T09:16:30.825Z,95339
2022-08-26T09:17:32.853Z,95334.4
2022-08-26T09:18:35.346Z,95337.5
2022-08-26T09:19:37.510Z,95342.6
2022-08-26T09:20:41.605Z,95338.4
2022-08-26T09:22:52.796Z,95342.4
2022-08-26T09:23:57.107Z,95340.3
2022-08-26T09:25:00.520Z,95340.8
2022-08-26T09:26:05.032Z,95338.5
2022-08-26T09:27:07.501Z,95337.7
2022-08-26T09:28:15.871Z,95338.4
2022-08-26T09:30:23.960Z,95335.5
2022-08-26T09:31:28.852Z,95335.2
2022-08-26T09:32:31.277Z,95336.4
2022-08-26T09:33:35.910Z,95337.5
2022-08-26T09:34:38.508Z,95335.8
2022-08-26T09:35:41.471Z,95333.3
2022-08-26T09:36:43.963Z,95333.3
2022-08-26T09:38:49.024Z,95329.8
2022-08-26T09:39:52.609Z,95328.2
2022-08-26T09:42:00.209Z,95324.5
2022-08-26T09:45:14.761Z,95326.1
2022-08-26T09:46:20.414Z,95321.6
2022-08-26T09:47:23.736Z,95319.3
2022-08-26T09:48:25.799Z,95321.2
2022-08-26T09:50:36.416Z,95319
2022-08-26T09:51:39.948Z,95316.9
2022-08-26T09:52:44.107Z,95314
2022-08-26T09:53:47.011Z,95311.6
2022-08-26T09:54:49.352Z,95315.3
2022-08-26T09:55:51.827Z,95313.5
2022-08-26T09:56:54.420Z,95309.6
2022-08-26T10:00:15.710Z,95304.9
2022-08-26T10:01:21.110Z,95302.3
2022-08-26T10:02:25.050Z,95299.3
2022-08-26T10:03:27.575Z,95300.8
2022-08-26T10:04:34.122Z,95300
2022-08-26T10:05:36.697Z,95296.2
2022-08-26T10:06:38.890Z,95296
2022-08-26T10:07:41.084Z,95294.9
2022-08-26T10:10:55.494Z,95288.1
2022-08-26T10:11:57.888Z,95289.1
2022-08-26T10:13:01.530Z,95291.2
2022-08-26T10:14:04.773Z,95280.6
2022-08-26T10:15:09.137Z,95290.8
2022-08-26T10:16:13.929Z,95282.7
2022-08-26T10:17:16.240Z,95282.8
2022-08-26T10:18:19.200Z,95273.7
2022-08-26T10:19:21.891Z,95280.4
2022-08-26T10:20:24.971Z,95276.9
2022-08-26T10:21:28.845Z,95275.1
2022-08-26T10:22:31.470Z,95277.6
2022-08-26T10:23:34.227Z,95274.8
2022-08-26T10:24:36.801Z,95270.8
2022-08-26T10:26:46.312Z,95272.8
2022-08-26T10:28:54.462Z,95271.9
2022-08-26T10:29:56.670Z,95270.6
2022-08-26T10:31:00.258Z,95269.3
2022-08-26T10:33:08.077Z,95270.9
2022-08-26T10:35:16.565Z,95260.7
2022-08-26T10:37:24.762Z,95259.5
2022-08-26T10:39:32.250Z,95255.3
2022-08-26T10:40:36.770Z,95255.2
2022-08-26T10:41:40.802Z,95253.2
2022-08-26T10:42:43.813Z,95253.8
2022-08-26T10:43:50.850Z,95254.2
2022-08-26T10:44:53.172Z,95255.4
2022-08-26T10:45:59.653Z,95258.8
2022-08-26T10:47:08.138Z,95252.8
2022-08-26T10:48:11.212Z,95254.2
2022-08-26T10:49:13.490Z,95253.5
2022-08-26T10:53:33.952Z,95246.6
2022-08-26T10:54:37.017Z,95243.8
2022-08-26T10:55:40.690Z,95246.9
2022-08-26T10:56:43.406Z,95245.2
2022-08-26T10:57:45.509Z,95244.7
2022-08-26T10:58:49.278Z,95243.8
2022-08-26T10:59:53.156Z,95241.9
2022-08-26T11:00:55.907Z,95237.8
2022-08-26T11:01:58.273Z,95238.2
2022-08-26T11:03:01.480Z,95240
2022-08-26T11:04:05.826Z,95239.1
2022-08-26T11:05:09.840Z,95234.2
2022-08-26T11:06:13.698Z,95232.9
2022-08-26T11:07:16.179Z,95234.1
2022-08-26T11:08:21.207Z,95232.2
2022-08-26T11:10:29.136Z,95227.8
2022-08-26T11:11:32.266Z,95228.7
2022-08-26T11:12:37.580Z,95228.7
2022-08-26T11:15:50.927Z,95227.8
2022-08-26T11:16:54.107Z,95225.8
2022-08-26T11:17:56.167Z,95224.6
2022-08-26T11:18:59.990Z,95222.1
2022-08-26T11:22:15.285Z,95220.8
2022-08-26T11:23:17.763Z,95215.9
2022-08-26T11:24:21.772Z,95219.2
2022-08-26T11:27:34.334Z,95215.7
2022-08-26T11:28:37.110Z,95213.8
2022-08-26T11:29:38.768Z,95211.2
2022-08-26T11:30:41.477Z,95214
2022-08-26T11:31:46.614Z,95208.9
2022-08-26T11:32:50.570Z,95207.7
2022-08-26T11:33:55.110Z,95208.1
2022-08-26T11:34:58.816Z,95206.9
2022-08-26T11:38:14.277Z,95206.7
2022-08-26T11:39:16.902Z,95205
2022-08-26T11:40:20.108Z,95207.8
2022-08-26T11:41:22.387Z,95206.8
2022-08-26T11:43:31.650Z,95202.1
2022-08-26T11:44:35.878Z,95204.7
2022-08-26T11:45:39.072Z,95208
2022-08-26T11:46:41.724Z,95204.2
2022-08-26T11:47:44.943Z,95201.1
2022-08-26T11:48:47.420Z,95200.2
2022-08-26T11:49:51.509Z,95195.7
2022-08-26T11:50:53.710Z,95194.9
2022-08-26T11:51:57.458Z,95193.9
2022-08-26T11:53:00.968Z,95194.1
2022-08-26T11:54:03.436Z,95189.1
2022-08-26T11:55:07.315Z,95188
2022-08-26T11:56:09.376Z,95188.3
2022-08-26T11:57:13.763Z,95187.3
2022-08-26T11:58:15.963Z,95180.6
2022-08-26T11:59:17.883Z,95183.5
2022-08-26T12:01:28.643Z,95178.4
2022-08-26T12:02:35.599Z,95174.1
2022-08-26T12:03:38.174Z,95177.6
2022-08-26T12:04:41.801Z,95176.6
2022-08-26T12:05:44.992Z,95175.3
2022-08-26T12:06:47.291Z,95178.6
2022-08-26T12:07:49.468Z,95176
2022-08-26T12:08:57.471Z,95173.2
2022-08-26T12:10:03.659Z,95174.3
2022-08-26T12:11:08.363Z,95171
2022-08-26T12:13:18.458Z,95171.2
2022-08-26T12:14:20.955Z,95173.5
2022-08-26T12:15:23.203Z,95174
2022-08-26T12:16:27.251Z,95168.5
2022-08-26T12:17:31.681Z,95165.5
2022-08-26T12:18:36.316Z,95167.3
2022-08-26T12:19:38.519Z,95167.6
2022-08-26T12:20:41.325Z,95164.3
2022-08-26T12:21:45.073Z,95164.2
2022-08-26T12:22:49.762Z,95159.3
2022-08-26T12:23:55.283Z,95162.3
2022-08-26T12:24:57.774Z,95164.6
2022-08-26T12:26:00.516Z,95157.6
2022-08-26T12:27:04.561Z,95154.5
2022-08-26T12:28:08.269Z,95159.8
2022-08-26T12:31:21.654Z,95161
2022-08-26T12:32:26.213Z,95160.9
2022-08-26T12:33:31.270Z,95153.7
2022-08-26T12:34:34.179Z,95151.7
2022-08-26T12:35:37.717Z,95150.7
2022-08-26T12:36:47.049Z,95151.6
2022-08-26T12:37:51.881Z,95146.1
2022-08-26T12:39:59.585Z,95143.9
2022-08-26T12:41:02.213Z,95145.3
2022-08-26T12:42:04.695Z,95143.2
2022-08-26T12:43:07.190Z,95143
2022-08-26T12:44:09.387Z,95147.8
2022-08-26T12:45:11.593Z,95146.6
2022-08-26T12:46:14.066Z,95144.9
2022-08-26T12:49:26.005Z,95147.7
2022-08-26T12:50:28.208Z,95142.7
2022-08-26T12:51:30.128Z,95142.5
2022-08-26T12:52:32.337Z,95144.5
2022-08-26T12:53:34.813Z,95145.1
2022-08-26T12:54:37.004Z,95141.4
2022-08-26T12:55:39.210Z,95139.2
2022-08-26T12:56:41.708Z,95137.9
2022-08-26T12:57:44.190Z,95137.9
2022-08-26T12:58:46.309Z,95137.4
2022-08-26T12:59:48.284Z,95132.3
2022-08-26T13:00:51.346Z,95127.1
2022-08-26T13:01:54.693Z,95127.9
2022-08-26T13:02:57.462Z,95132.3
2022-08-26T13:03:59.656Z,95129.3
2022-08-26T13:05:02.306Z,95123.4
2022-08-26T13:06:04.774Z,95120.4
2022-08-26T13:07:07.274Z,95122.3
2022-08-26T13:08:09.467Z,95122.4
2022-08-26T13:09:11.948Z,95123.9
2022-08-26T13:10:14.432Z,95121.9
2022-08-26T13:11:16.651Z,95124
2022-08-26T13:12:19.132Z,95119.3
2022-08-26T13:13:21.332Z,95122.4
2022-08-26T13:14:25.943Z,95123.6
2022-08-26T13:15:28.151Z,95121.1
2022-08-26T13:16:30.604Z,95120.1
2022-08-26T13:17:32.615Z,95116.8
2022-08-26T13:18:34.823Z,95112.9
2022-08-26T13:19:37.067Z,95111.7
2022-08-26T13:20:39.554Z,95110.1
2022-08-26T13:21:41.773Z,95107.3
2022-08-26T13:22:44.256Z,95105.7
2022-08-26T13:23:51.203Z,95103
2022-08-26T13:24:53.672Z,95098.4
2022-08-26T13:25:55.877Z,95098.9
2022-08-26T13:26:58.407Z,95098.1
2022-08-26T13:28:00.616Z,95100.1
2022-08-26T13:31:17.606Z,95099
2022-08-26T13:32:26.911Z,95097.3
2022-08-26T13:33:30.321Z,95100.5
2022-08-26T13:34:33.387Z,95103.3
2022-08-26T13:35:35.856Z,95099.4
2022-08-26T13:36:38.064Z,95098.5
2022-08-26T13:37:42.718Z,95099.3
2022-08-26T13:39:49.498Z,95095.7
2022-08-26T13:40:51.781Z,95093
2022-08-26T13:41:53.699Z,95093.1
2022-08-26T13:42:56.175Z,95092.8
2022-08-26T13:44:00.654Z,95091.1
2022-08-26T13:45:02.592Z,95095
2022-08-26T13:46:05.057Z,95096.9
2022-08-26T13:47:07.268Z,95090.6
2022-08-26T13:48:10.577Z,95093.7
2022-08-26T13:49:13.075Z,95091.6
2022-08-26T13:50:14.966Z,95092.5
2022-08-26T13:51:16.878Z,95101
2022-08-26T13:53:24.353Z,95090.9
2022-08-26T13:54:26.835Z,95090.7
2022-08-26T13:55:29.304Z,95087.1
2022-08-26T13:56:31.782Z,95089.2
2022-08-26T13:57:33.977Z,95086.4
2022-08-26T13:58:36.451Z,95086.1
2022-08-26T13:59:41.405Z,95093.1
2022-08-26T14:00:44.183Z,95090.3
2022-08-26T14:01:46.781Z,95091.8
2022-08-26T14:02:49.256Z,95091.6
2022-08-26T14:03:52.006Z,95089
2022-08-26T14:04:54.359Z,95091.9
2022-08-26T14:05:56.570Z,95085.2
2022-08-26T14:06:58.798Z,95085.9
2022-08-26T14:08:01.278Z,95082.8
2022-08-26T14:09:03.486Z,95082.4
2022-08-26T14:10:05.887Z,95082.7
2022-08-26T14:11:08.098Z,95079
2022-08-26T14:12:10.614Z,95078.8
2022-08-26T14:13:13.115Z,95077.7
2022-08-26T14:14:15.854Z,95072.3
2022-08-26T14:15:18.565Z,95081
2022-08-26T14:16:21.306Z,95076
2022-08-26T14:17:24.121Z,95081.4
2022-08-26T14:19:31.607Z,95079.5
2022-08-26T14:20:34.104Z,95078.2
2022-08-26T14:21:36.589Z,95081.9
2022-08-26T14:23:43.755Z,95082.8
2022-08-26T14:24:45.955Z,95085.5
2022-08-26T14:25:47.875Z,95081.9
2022-08-26T14:26:50.066Z,95082.3
2022-08-26T14:27:52.262Z,95082.9
2022-08-26T14:28:54.740Z,95084.4
2022-08-26T14:31:02.929Z,95085
2022-08-26T14:32:05.854Z,95081.7
2022-08-26T14:33:08.280Z,95081.8
2022-08-26T14:34:10.944Z,95081.6
2022-08-26T14:35:13.437Z,95084.2
2022-08-26T14:36:15.910Z,95080.6
2022-08-26T14:37:18.391Z,95087.4
2022-08-26T14:38:20.328Z,95086.5
2022-08-26T14:39:22.529Z,95088.8
2022-08-26T14:40:25.529Z,95089.1
2022-08-26T14:41:28.113Z,95088.5
2022-08-26T14:43:35.606Z,95088.1
2022-08-26T14:44:38.081Z,95086.2
2022-08-26T14:46:43.586Z,95093.1
2022-08-26T14:47:45.881Z,95086.8
2022-08-26T14:48:48.368Z,95090
2022-08-26T14:49:50.841Z,95085.2
2022-08-26T14:50:52.759Z,95086.6
2022-08-26T14:51:54.932Z,95084.1
2022-08-26T14:52:57.124Z,95079.6